Accueil
METAR-TAF:

METAR-TAF

Aéroports :

Aéroport international Sardar Vallabhbhai Patel

Ahmedabad, Inde

latitude: 23-04N, longitude: 072-38E, altitude: 55 m

Observation

Le bulletin a été fait il y a 29 minutes, à 06:00 UTC
Vent 7 kt de est/nord-est
Température 24°C
Humidité 44%
Pression 1018 hPa
Visibilité: 3000 m
fumée

METAR: VAAH 080600Z 07007KT 3000 FU NSC 24/11 Q1018 NOSIG

Heure: 11:59 (06:29 UTC)

Prévision

Le bulletin a été fait il y a 1 heure et 29 minutes, à 05:00 UTC
Prévision valable du 08 à 06 UTC au 09 à 12 UTC
Vent 5 kt de nord-est
Visibilité: 4000 m
fumée
Evoluant progressivement
du 09 à 01 UTC au 09 à 03 UTC
Vent 8 kt de nord-est
Visibilité: 1500 m
brume, brume sèche
Evoluant progressivement
du 09 à 04 UTC au 09 à 06 UTC
Visibilité: 4000 m
fumée

TAF: VAAH 080500Z 0806/0912 04005KT 4000 FU NSC BECMG 0901/0903 05008KT 1500 BR HZ BECMG 0904/0906 4000 FU

Observations et prévisions météorologiques de plus de 4000 aéroports (messages METAR et TAF).

Les stations disponibles sont représentées par des disques jaunes et rouges sur la carte.

Passer la souris dessus pour voir le nom de la station.

Cliquer dessus pour voir les observations et prévisions météorologiques.

Pour changer de carte: cliquez sur les boutons verts avec une croix noire pour zoomer, sur le bouton vert avec un tiret pour effectuer un zoom arrière, ou sur les flèches vertes pour les cartes adjacentes.


METAR-TAF: